メインページ
METAR-TAF:

METAR-TAF

空港 :

ナンディ国際空港

ナンディ, フィジー

緯度: 17-45S, 経度: 177-27E, 海抜: 13m

現時点の気象観測

当レポートは19分前の05:00(UTC)に作成
西/北西の風 9kt
気温 26°C
湿度 84%
気圧 1012 hPa
視程10km以上
高度2800ftの雲はほとんどない
高度13000ftの雲は散在している
高度30000ftの千切れ雲あり

METAR: NFFN 200500Z 29009KT 9999 FEW028 SCT130 BKN300 26/23 Q1012 NOSIG

時間: 17:19 (05:19 UTC)

予報

当レポートは6時間13分前の23:06(UTC)に作成
予報は20日の 00時(UTC)から 20日の 24時(UTC)まで有効
西の風 7kt
視程10km以上
高度2800ftの雲は散在している
高度10000ftの雲は散在している
確率 30% :
20日の 02時(UTC)から 20日の 08時(UTC)まで一時的に
視程: 5000m
高度1500ftの千切れ雲あり
にわか雨
20日の 04時(UTC)から 20日の 06時(UTC)まで徐々に
の風 6kt
20日の 22時(UTC)から 20日の 24時(UTC)まで徐々に
西の風 10kt

TAF: NFFN 192306Z 2000/2024 27007KT 9999 SCT028 SCT100 PROB30 TEMPO 2002/2008 5000 SHRA BKN015 BECMG 2004/2006 08006KT BECMG 2022/2024 27010KT

4,000以上の空港の気象観測と天気予報(METAR報とTAF報)

利用可能な観測所は地図上に黄色い丸と赤い丸で示す。

丸の上にカーソルを重ねると観測所名を参照できる。

次にクリックすると気象観測と天気予報を参照できる。

マップの切り替え:黒色「×」印の緑ボタンをクリックして拡大、「-」印の緑ボタンをクリックして縮小、緑色の三角印をクリックして隣りの地図に切り替え


METAR-TAF: